C6572 KMOB-KMOB
Flight info
| Callsign | C6572 |
|---|---|
| Flight time | 2h 40m |
| Altitude | 1000 |
| Route | VFR OPR |
| Aircraft | AS65/L-VGD/C |
Departure
| Time | 2026-04-11 22:33 |
|---|---|
| Airport | Mobile Regional Airport (KMOB) |
Arrival
| Time | 2026-04-12 01:14 |
|---|---|
| Airport | Mobile Regional Airport (KMOB) |
| Time | Latitude | Longitude | Altitude | Speed | Heading |
|---|---|---|---|---|---|
| 2026-04-11 21:58 | 30.69382 | -88.24238 | 220 ft | 0 kts | 0° |
| 2026-04-11 22:31 | 30.69400 | -88.24240 | 233 ft | 5 kts | 2° |
| 2026-04-11 22:31 | 30.69465 | -88.24281 | 241 ft | 17 kts | 316° |
| 2026-04-11 22:31 | 30.69480 | -88.24432 | 249 ft | 18 kts | 275° |
| 2026-04-11 22:31 | 30.69469 | -88.24586 | 249 ft | 20 kts | 269° |
| 2026-04-11 22:32 | 30.69390 | -88.24693 | 257 ft | 18 kts | 181° |
| 2026-04-11 22:32 | 30.69217 | -88.24652 | 297 ft | 42 kts | 180° |
| 2026-04-11 22:32 | 30.68785 | -88.24662 | 360 ft | 80 kts | 181° |
| 2026-04-11 22:32 | 30.68130 | -88.24672 | 416 ft | 107 kts | 180° |
| 2026-04-11 22:33 | 30.67312 | -88.24632 | 508 ft | 123 kts | 177° |
| 2026-04-11 22:33 | 30.66499 | -88.24492 | 689 ft | 117 kts | 168° |
| 2026-04-11 22:33 | 30.65707 | -88.24261 | 857 ft | 116 kts | 162° |
| 2026-04-11 22:33 | 30.64912 | -88.24043 | 994 ft | 116 kts | 170° |
| 2026-04-11 22:34 | 30.64125 | -88.23871 | 1016 ft | 118 kts | 169° |
| 2026-04-11 22:34 | 30.63300 | -88.23698 | 1021 ft | 119 kts | 172° |
| 2026-04-11 22:34 | 30.62515 | -88.23511 | 1013 ft | 113 kts | 170° |
| 2026-04-11 22:34 | 30.61738 | -88.23328 | 1013 ft | 114 kts | 171° |
| 2026-04-11 22:35 | 30.60969 | -88.23155 | 1007 ft | 114 kts | 171° |
| 2026-04-11 22:35 | 30.60179 | -88.22974 | 1013 ft | 113 kts | 171° |
| 2026-04-11 22:35 | 30.59429 | -88.22800 | 1014 ft | 111 kts | 171° |
| 2026-04-11 22:35 | 30.58669 | -88.22619 | 1005 ft | 114 kts | 170° |
| 2026-04-11 22:36 | 30.57867 | -88.22430 | 1015 ft | 114 kts | 171° |
| 2026-04-11 22:36 | 30.57131 | -88.22268 | 1007 ft | 110 kts | 169° |
| 2026-04-11 22:36 | 30.56367 | -88.22090 | 1012 ft | 112 kts | 171° |
| 2026-04-11 22:36 | 30.55633 | -88.21903 | 1014 ft | 106 kts | 169° |
| 2026-04-11 22:37 | 30.54901 | -88.21730 | 1006 ft | 112 kts | 169° |
| 2026-04-11 22:37 | 30.54130 | -88.21549 | 1017 ft | 111 kts | 170° |
| 2026-04-11 22:37 | 30.53390 | -88.21370 | 1005 ft | 111 kts | 170° |
| 2026-04-11 22:37 | 30.52633 | -88.21186 | 1014 ft | 112 kts | 172° |
| 2026-04-11 22:38 | 30.51871 | -88.21002 | 1011 ft | 115 kts | 171° |
| 2026-04-11 22:38 | 30.51088 | -88.20829 | 1018 ft | 114 kts | 171° |
| 2026-04-11 22:38 | 30.50305 | -88.20676 | 1014 ft | 113 kts | 170° |
| 2026-04-11 22:38 | 30.49514 | -88.20535 | 1012 ft | 118 kts | 172° |
| 2026-04-11 22:39 | 30.48746 | -88.20374 | 1024 ft | 109 kts | 170° |
| 2026-04-11 22:39 | 30.47946 | -88.20220 | 1011 ft | 122 kts | 171° |
| 2026-04-11 22:39 | 30.47126 | -88.20050 | 1023 ft | 116 kts | 169° |
| 2026-04-11 22:39 | 30.46321 | -88.19907 | 1015 ft | 118 kts | 172° |
| 2026-04-11 22:40 | 30.45527 | -88.19743 | 1018 ft | 116 kts | 171° |
| 2026-04-11 22:40 | 30.44731 | -88.19586 | 1015 ft | 117 kts | 169° |
| 2026-04-11 22:40 | 30.43920 | -88.19444 | 1022 ft | 116 kts | 172° |
| 2026-04-11 22:40 | 30.43159 | -88.19293 | 1014 ft | 109 kts | 169° |
| 2026-04-11 22:41 | 30.42383 | -88.19148 | 1019 ft | 114 kts | 171° |
| 2026-04-11 22:41 | 30.41595 | -88.18976 | 1021 ft | 115 kts | 169° |
| 2026-04-11 22:41 | 30.40811 | -88.18815 | 1020 ft | 114 kts | 171° |
| 2026-04-11 22:41 | 30.40040 | -88.18651 | 1022 ft | 111 kts | 170° |
| 2026-04-11 22:42 | 30.39276 | -88.18490 | 1025 ft | 111 kts | 172° |
| 2026-04-11 22:42 | 30.38530 | -88.18314 | 1012 ft | 109 kts | 169° |
| 2026-04-11 22:42 | 30.37768 | -88.18151 | 1020 ft | 113 kts | 171° |
| 2026-04-11 22:43 | 30.36238 | -88.17845 | 1021 ft | 109 kts | 170° |
| 2026-04-11 22:43 | 30.35474 | -88.17703 | 1020 ft | 112 kts | 171° |
| 2026-04-11 22:43 | 30.34715 | -88.17567 | 1020 ft | 112 kts | 170° |
| 2026-04-11 22:43 | 30.33925 | -88.17424 | 1026 ft | 116 kts | 171° |
| 2026-04-11 22:44 | 30.33136 | -88.17277 | 1025 ft | 112 kts | 171° |
| 2026-04-11 22:44 | 30.32366 | -88.17135 | 1021 ft | 115 kts | 171° |
| 2026-04-11 22:44 | 30.31583 | -88.16992 | 1021 ft | 113 kts | 171° |
| 2026-04-11 22:44 | 30.30809 | -88.16848 | 1021 ft | 113 kts | 171° |
| 2026-04-11 22:45 | 30.30034 | -88.16699 | 1021 ft | 114 kts | 170° |
| 2026-04-11 22:45 | 30.29246 | -88.16560 | 1023 ft | 115 kts | 170° |
| 2026-04-11 22:45 | 30.28450 | -88.16430 | 1020 ft | 116 kts | 171° |
| 2026-04-11 22:45 | 30.27645 | -88.16277 | 1023 ft | 120 kts | 169° |
| 2026-04-11 22:46 | 30.26822 | -88.16139 | 1026 ft | 117 kts | 171° |
| 2026-04-11 22:46 | 30.26038 | -88.15996 | 1017 ft | 114 kts | 170° |
| 2026-04-11 22:46 | 30.25252 | -88.15853 | 1025 ft | 113 kts | 171° |
| 2026-04-11 22:46 | 30.24471 | -88.15709 | 1020 ft | 114 kts | 170° |
| 2026-04-11 22:47 | 30.23688 | -88.15566 | 1026 ft | 114 kts | 171° |
| 2026-04-11 22:47 | 30.22902 | -88.15424 | 1019 ft | 115 kts | 173° |
| 2026-04-11 22:47 | 30.22102 | -88.15320 | 1025 ft | 114 kts | 174° |
| 2026-04-11 22:47 | 30.21316 | -88.15243 | 1021 ft | 114 kts | 175° |
| 2026-04-11 22:48 | 30.20514 | -88.15158 | 1023 ft | 115 kts | 174° |
| 2026-04-11 22:48 | 30.19724 | -88.15080 | 1020 ft | 115 kts | 175° |
| 2026-04-11 22:48 | 30.18915 | -88.14980 | 1027 ft | 116 kts | 174° |
| 2026-04-11 22:48 | 30.18127 | -88.14902 | 1020 ft | 114 kts | 175° |
| 2026-04-11 22:49 | 30.17327 | -88.14806 | 1025 ft | 116 kts | 175° |
| 2026-04-11 22:49 | 30.16524 | -88.14708 | 1025 ft | 113 kts | 175° |
| 2026-04-11 22:49 | 30.15751 | -88.14622 | 1015 ft | 112 kts | 174° |
| 2026-04-11 22:49 | 30.14966 | -88.14545 | 1014 ft | 114 kts | 174° |
| 2026-04-11 22:50 | 30.14160 | -88.14476 | 1019 ft | 117 kts | 174° |
| 2026-04-11 22:50 | 30.13358 | -88.14422 | 1013 ft | 117 kts | 176° |
| 2026-04-11 22:50 | 30.12531 | -88.14380 | 1020 ft | 118 kts | 176° |
| 2026-04-11 22:50 | 30.11728 | -88.14355 | 1014 ft | 115 kts | 176° |
| 2026-04-11 22:51 | 30.10922 | -88.14328 | 1019 ft | 114 kts | 176° |
| 2026-04-11 22:51 | 30.10134 | -88.14303 | 1014 ft | 114 kts | 176° |
| 2026-04-11 22:51 | 30.09318 | -88.14435 | 1012 ft | 123 kts | 188° |
| 2026-04-11 22:51 | 30.08493 | -88.14647 | 1014 ft | 121 kts | 189° |
| 2026-04-11 22:52 | 30.07668 | -88.14861 | 1016 ft | 121 kts | 189° |
| 2026-04-11 22:52 | 30.06849 | -88.15079 | 1017 ft | 120 kts | 190° |
| 2026-04-11 22:52 | 30.06033 | -88.15303 | 1017 ft | 120 kts | 191° |
| 2026-04-11 22:52 | 30.05218 | -88.15531 | 1018 ft | 121 kts | 191° |
| 2026-04-11 22:53 | 30.04406 | -88.15740 | 1001 ft | 120 kts | 187° |
| 2026-04-11 22:53 | 30.03579 | -88.15888 | 912 ft | 119 kts | 186° |
| 2026-04-11 22:53 | 30.02759 | -88.15995 | 757 ft | 119 kts | 184° |
| 2026-04-11 22:53 | 30.01932 | -88.16087 | 557 ft | 121 kts | 183° |
| 2026-04-11 22:54 | 30.01110 | -88.16169 | 383 ft | 117 kts | 182° |
| 2026-04-11 22:54 | 30.00275 | -88.16236 | 306 ft | 119 kts | 181° |
| 2026-04-11 22:54 | 29.99500 | -88.16274 | 314 ft | 104 kts | 180° |
| 2026-04-11 22:54 | 29.98818 | -88.16296 | 314 ft | 92 kts | 177° |
| 2026-04-11 22:55 | 29.97646 | -88.16295 | 310 ft | 81 kts | 175° |
| 2026-04-11 22:55 | 29.97090 | -88.16266 | 311 ft | 80 kts | 174° |
| 2026-04-11 22:55 | 29.96529 | -88.16216 | 313 ft | 82 kts | 172° |
| 2026-04-11 22:56 | 29.95961 | -88.16147 | 311 ft | 82 kts | 170° |
| 2026-04-11 22:56 | 29.95389 | -88.16061 | 310 ft | 82 kts | 168° |
| 2026-04-11 22:56 | 29.94825 | -88.15959 | 311 ft | 82 kts | 171° |
| 2026-04-11 22:56 | 29.94261 | -88.15867 | 311 ft | 81 kts | 170° |
| 2026-04-11 22:57 | 29.93805 | -88.15543 | 311 ft | 82 kts | 115° |
| 2026-04-11 22:57 | 29.93742 | -88.14892 | 310 ft | 82 kts | 95° |
| 2026-04-11 22:57 | 29.93784 | -88.14235 | 307 ft | 87 kts | 62° |
| 2026-04-11 22:57 | 29.94324 | -88.14120 | 305 ft | 94 kts | 318° |
| 2026-04-11 22:58 | 29.94545 | -88.14812 | 314 ft | 92 kts | 273° |
| 2026-04-11 22:58 | 29.94758 | -88.15471 | 361 ft | 87 kts | 330° |
| 2026-04-11 22:58 | 29.95144 | -88.15318 | 225 ft | 56 kts | 102° |
| 2026-04-11 22:58 | 29.94947 | -88.15212 | 179 ft | 12 kts | 162° |
| 2026-04-11 22:59 | 29.94938 | -88.15246 | 168 ft | 8 kts | 173° |
| 2026-04-11 22:59 | 29.94938 | -88.15257 | 170 ft | 0 kts | 173° |
| 2026-04-11 22:59 | 29.94938 | -88.15256 | 170 ft | 0 kts | 173° |
| 2026-04-11 22:59 | 29.94938 | -88.15257 | 169 ft | 0 kts | 173° |
| 2026-04-11 23:00 | 29.94938 | -88.15256 | 167 ft | 0 kts | 173° |
| 2026-04-11 23:00 | 29.94939 | -88.15256 | 162 ft | 0 kts | 173° |
| 2026-04-11 23:00 | 29.94939 | -88.15255 | 160 ft | 0 kts | 173° |
| 2026-04-11 23:01 | 29.94939 | -88.15256 | 164 ft | 0 kts | 173° |
| 2026-04-11 23:01 | 29.94939 | -88.15255 | 165 ft | 0 kts | 173° |
| 2026-04-11 23:01 | 29.94936 | -88.15255 | 166 ft | 4 kts | 173° |
| 2026-04-11 23:02 | 29.94955 | -88.15262 | 173 ft | 22 kts | 149° |
| 2026-04-11 23:02 | 29.94912 | -88.15337 | 168 ft | 12 kts | 147° |
| 2026-04-11 23:02 | 29.94910 | -88.15282 | 175 ft | 7 kts | 140° |
| 2026-04-11 23:02 | 29.94939 | -88.15333 | 163 ft | 7 kts | 140° |
| 2026-04-11 23:03 | 29.94973 | -88.15254 | 260 ft | 6 kts | 140° |
| 2026-04-11 23:03 | 29.94954 | -88.15252 | 216 ft | 4 kts | 140° |
| 2026-04-11 23:03 | 29.94927 | -88.15266 | 202 ft | 2 kts | 140° |
| 2026-04-11 23:03 | 29.94922 | -88.15268 | 195 ft | 0 kts | 140° |
| 2026-04-11 23:04 | 29.94923 | -88.15268 | 179 ft | 0 kts | 140° |
| 2026-04-11 23:05 | 29.94923 | -88.15267 | 178 ft | 0 kts | 140° |
| 2026-04-11 23:05 | 29.94923 | -88.15268 | 177 ft | 0 kts | 140° |
| 2026-04-11 23:05 | 29.94923 | -88.15267 | 177 ft | 0 kts | 140° |
| 2026-04-11 23:06 | 29.94923 | -88.15268 | 177 ft | 0 kts | 140° |
| 2026-04-11 23:06 | 29.94924 | -88.15267 | 177 ft | 0 kts | 140° |
| 2026-04-11 23:06 | 29.94924 | -88.15268 | 177 ft | 0 kts | 175° |
| 2026-04-11 23:07 | 29.94925 | -88.15268 | 175 ft | 0 kts | 175° |
| 2026-04-11 23:08 | 29.94925 | -88.15267 | 175 ft | 0 kts | 175° |
| 2026-04-11 23:08 | 29.94925 | -88.15268 | 176 ft | 0 kts | 175° |
| 2026-04-11 23:08 | 29.94925 | -88.15267 | 176 ft | 0 kts | 175° |
| 2026-04-11 23:09 | 29.94925 | -88.15268 | 176 ft | 0 kts | 175° |
| 2026-04-11 23:09 | 29.94925 | -88.15267 | 177 ft | 0 kts | 175° |
| 2026-04-11 23:11 | 29.94926 | -88.15267 | 177 ft | 0 kts | 175° |
| 2026-04-11 23:11 | 29.94925 | -88.15267 | 177 ft | 0 kts | 175° |
| 2026-04-11 23:12 | 29.94926 | -88.15267 | 177 ft | 0 kts | 175° |
| 2026-04-11 23:12 | 29.94926 | -88.15266 | 177 ft | 0 kts | 175° |
| 2026-04-11 23:13 | 29.94926 | -88.15267 | 177 ft | 0 kts | 175° |
| 2026-04-11 23:13 | 29.94925 | -88.15267 | 177 ft | 0 kts | 175° |
| 2026-04-11 23:13 | 29.94926 | -88.15267 | 177 ft | 0 kts | 175° |
| 2026-04-11 23:13 | 29.94925 | -88.15267 | 177 ft | 0 kts | 175° |
| 2026-04-11 23:14 | 29.94926 | -88.15267 | 177 ft | 0 kts | 175° |
| 2026-04-11 23:17 | 29.94926 | -88.15266 | 177 ft | 0 kts | 175° |
| 2026-04-11 23:17 | 29.94926 | -88.15267 | 177 ft | 0 kts | 175° |
| 2026-04-11 23:18 | 29.94926 | -88.15266 | 177 ft | 0 kts | 175° |
| 2026-04-11 23:18 | 29.94926 | -88.15267 | 177 ft | 0 kts | 175° |
| 2026-04-11 23:21 | 29.94926 | -88.15266 | 177 ft | 0 kts | 175° |
| 2026-04-11 23:21 | 29.94926 | -88.15267 | 177 ft | 0 kts | 175° |
| 2026-04-11 23:22 | 29.94925 | -88.15267 | 177 ft | 0 kts | 175° |
| 2026-04-11 23:22 | 29.94926 | -88.15267 | 177 ft | 0 kts | 175° |
| 2026-04-11 23:24 | 29.94925 | -88.15266 | 177 ft | 0 kts | 175° |
| 2026-04-11 23:24 | 29.94926 | -88.15267 | 177 ft | 0 kts | 175° |
| 2026-04-11 23:26 | 29.94923 | -88.15269 | 177 ft | 4 kts | 238° |
| 2026-04-11 23:26 | 29.94896 | -88.15331 | 171 ft | 13 kts | 272° |
| 2026-04-11 23:27 | 29.94908 | -88.15525 | 197 ft | 32 kts | 273° |
| 2026-04-11 23:27 | 29.94966 | -88.15832 | 293 ft | 48 kts | 269° |
| 2026-04-11 23:27 | 29.94658 | -88.15828 | 376 ft | 69 kts | 131° |
| 2026-04-11 23:27 | 29.94358 | -88.15280 | 391 ft | 91 kts | 128° |
| 2026-04-11 23:28 | 29.93949 | -88.14651 | 302 ft | 105 kts | 124° |
| 2026-04-11 23:28 | 29.93822 | -88.13828 | 352 ft | 98 kts | 70° |
| 2026-04-11 23:28 | 29.94312 | -88.13675 | 374 ft | 85 kts | 298° |
| 2026-04-11 23:28 | 29.94434 | -88.14341 | 228 ft | 89 kts | 274° |
| 2026-04-11 23:29 | 29.94516 | -88.15099 | 232 ft | 100 kts | 272° |
| 2026-04-11 23:29 | 29.94576 | -88.15906 | 285 ft | 104 kts | 272° |
| 2026-04-11 23:29 | 29.94619 | -88.16754 | 332 ft | 108 kts | 270° |
| 2026-04-11 23:29 | 29.94586 | -88.17589 | 420 ft | 93 kts | 240° |
| 2026-04-11 23:30 | 29.94219 | -88.17959 | 566 ft | 59 kts | 167° |
| 2026-04-11 23:30 | 29.93960 | -88.17706 | 579 ft | 53 kts | 102° |
| 2026-04-11 23:30 | 29.93935 | -88.17214 | 543 ft | 71 kts | 92° |
| 2026-04-11 23:30 | 29.93969 | -88.16592 | 444 ft | 84 kts | 90° |
| 2026-04-11 23:31 | 29.94006 | -88.15882 | 328 ft | 94 kts | 90° |
| 2026-04-11 23:31 | 29.94038 | -88.15175 | 263 ft | 79 kts | 87° |
| 2026-04-11 23:31 | 29.94064 | -88.14631 | 197 ft | 57 kts | 88° |
| 2026-04-11 23:31 | 29.94073 | -88.14359 | 79 ft | 6 kts | 82° |
| 2026-04-11 23:32 | 29.94069 | -88.14312 | 64 ft | 4 kts | 82° |
| 2026-04-11 23:32 | 29.94065 | -88.14271 | 57 ft | 5 kts | 83° |
| 2026-04-11 23:32 | 29.94065 | -88.14243 | 51 ft | 3 kts | 89° |
| 2026-04-11 23:32 | 29.94066 | -88.14231 | 33 ft | 1 kts | 91° |
| 2026-04-11 23:33 | 29.94066 | -88.14225 | 67 ft | 3 kts | 89° |
| 2026-04-11 23:33 | 29.94040 | -88.14094 | 164 ft | 41 kts | 104° |
| 2026-04-11 23:33 | 29.94146 | -88.13679 | 213 ft | 68 kts | 21° |
| 2026-04-11 23:33 | 29.94481 | -88.14063 | 213 ft | 83 kts | 296° |
| 2026-04-11 23:34 | 29.94780 | -88.14699 | 202 ft | 97 kts | 298° |
| 2026-04-11 23:34 | 29.95099 | -88.15420 | 200 ft | 105 kts | 295° |
| 2026-04-11 23:34 | 29.95427 | -88.16202 | 224 ft | 107 kts | 282° |
| 2026-04-11 23:34 | 29.95178 | -88.16661 | 232 ft | 76 kts | 148° |
| 2026-04-11 23:35 | 29.94848 | -88.16177 | 248 ft | 78 kts | 129° |
| 2026-04-11 23:35 | 29.94501 | -88.15701 | 290 ft | 77 kts | 133° |
| 2026-04-11 23:35 | 29.94168 | -88.15220 | 288 ft | 80 kts | 120° |
| 2026-04-11 23:35 | 29.93957 | -88.14589 | 268 ft | 90 kts | 107° |
| 2026-04-11 23:36 | 29.93872 | -88.13831 | 264 ft | 100 kts | 96° |
| 2026-04-11 23:36 | 29.93894 | -88.12999 | 230 ft | 106 kts | 89° |
| 2026-04-11 23:36 | 29.94193 | -88.12279 | 234 ft | 103 kts | 37° |
| 2026-04-11 23:36 | 29.94843 | -88.12372 | 235 ft | 102 kts | 305° |
| 2026-04-11 23:37 | 29.94919 | -88.13120 | 245 ft | 92 kts | 261° |
| 2026-04-11 23:37 | 29.94845 | -88.13837 | 243 ft | 89 kts | 256° |
| 2026-04-11 23:37 | 29.94707 | -88.14535 | 241 ft | 89 kts | 249° |
| 2026-04-11 23:37 | 29.94506 | -88.15199 | 242 ft | 88 kts | 243° |
| 2026-04-11 23:38 | 29.94241 | -88.15836 | 242 ft | 88 kts | 236° |
| 2026-04-11 23:38 | 29.93923 | -88.16425 | 243 ft | 86 kts | 230° |
| 2026-04-11 23:38 | 29.93554 | -88.16963 | 242 ft | 86 kts | 224° |
| 2026-04-11 23:38 | 29.93132 | -88.17455 | 242 ft | 85 kts | 216° |
| 2026-04-11 23:39 | 29.92674 | -88.17882 | 238 ft | 86 kts | 211° |
| 2026-04-11 23:39 | 29.92173 | -88.18243 | 240 ft | 83 kts | 202° |
| 2026-04-11 23:39 | 29.91648 | -88.18528 | 238 ft | 83 kts | 197° |
| 2026-04-11 23:39 | 29.91099 | -88.18736 | 238 ft | 83 kts | 189° |
| 2026-04-11 23:40 | 29.90540 | -88.18860 | 238 ft | 83 kts | 184° |
| 2026-04-11 23:40 | 29.90030 | -88.19179 | 244 ft | 90 kts | 232° |
| 2026-04-11 23:40 | 29.89970 | -88.19890 | 239 ft | 95 kts | 289° |
| 2026-04-11 23:40 | 29.90440 | -88.20373 | 236 ft | 94 kts | 348° |
| 2026-04-11 23:41 | 29.91034 | -88.20223 | 241 ft | 86 kts | 46° |
| 2026-04-11 23:41 | 29.91353 | -88.19665 | 238 ft | 83 kts | 67° |
| 2026-04-11 23:41 | 29.91634 | -88.19081 | 240 ft | 84 kts | 66° |
| 2026-04-11 23:41 | 29.91906 | -88.18488 | 237 ft | 84 kts | 66° |
| 2026-04-11 23:42 | 29.92168 | -88.17892 | 240 ft | 83 kts | 68° |
| 2026-04-11 23:42 | 29.92421 | -88.17287 | 239 ft | 84 kts | 69° |
| 2026-04-11 23:42 | 29.92662 | -88.16685 | 243 ft | 82 kts | 73° |
| 2026-04-11 23:43 | 29.93110 | -88.15445 | 240 ft | 85 kts | 73° |
| 2026-04-11 23:43 | 29.93317 | -88.14809 | 241 ft | 84 kts | 74° |
| 2026-04-11 23:43 | 29.93694 | -88.13510 | 242 ft | 84 kts | 78° |
| 2026-04-11 23:44 | 29.93857 | -88.12865 | 239 ft | 85 kts | 79° |
| 2026-04-11 23:44 | 29.94008 | -88.12213 | 241 ft | 84 kts | 79° |
| 2026-04-11 23:44 | 29.94144 | -88.11561 | 244 ft | 83 kts | 81° |
| 2026-04-11 23:44 | 29.94262 | -88.10913 | 238 ft | 83 kts | 82° |
| 2026-04-11 23:45 | 29.94369 | -88.10253 | 239 ft | 83 kts | 86° |
| 2026-04-11 23:45 | 29.94460 | -88.09604 | 240 ft | 81 kts | 85° |
| 2026-04-11 23:45 | 29.94536 | -88.08968 | 238 ft | 82 kts | 86° |
| 2026-04-11 23:45 | 29.94778 | -88.08371 | 235 ft | 91 kts | 38° |
| 2026-04-11 23:46 | 29.95352 | -88.08537 | 239 ft | 95 kts | 298° |
| 2026-04-11 23:46 | 29.95420 | -88.09266 | 241 ft | 90 kts | 262° |
| 2026-04-11 23:46 | 29.95327 | -88.09968 | 239 ft | 89 kts | 256° |
| 2026-04-11 23:46 | 29.95216 | -88.10666 | 240 ft | 89 kts | 256° |
| 2026-04-11 23:47 | 29.95089 | -88.11374 | 240 ft | 91 kts | 253° |
| 2026-04-11 23:47 | 29.94951 | -88.12077 | 244 ft | 89 kts | 253° |
| 2026-04-11 23:47 | 29.94808 | -88.12764 | 238 ft | 88 kts | 251° |
| 2026-04-11 23:47 | 29.94654 | -88.13454 | 239 ft | 89 kts | 252° |
| 2026-04-11 23:48 | 29.94491 | -88.14139 | 238 ft | 88 kts | 250° |
| 2026-04-11 23:48 | 29.94319 | -88.14813 | 242 ft | 87 kts | 249° |
| 2026-04-11 23:48 | 29.94136 | -88.15488 | 238 ft | 89 kts | 250° |
| 2026-04-11 23:48 | 29.93949 | -88.16147 | 239 ft | 85 kts | 247° |
| 2026-04-11 23:49 | 29.93625 | -88.16690 | 236 ft | 83 kts | 198° |
| 2026-04-11 23:49 | 29.93157 | -88.16474 | 240 ft | 81 kts | 116° |
| 2026-04-11 23:49 | 29.93196 | -88.15822 | 240 ft | 84 kts | 79° |
| 2026-04-11 23:49 | 29.93349 | -88.15172 | 238 ft | 84 kts | 80° |
| 2026-04-11 23:50 | 29.93451 | -88.14739 | 238 ft | 85 kts | 79° |
| 2026-04-11 23:50 | 29.93608 | -88.14064 | 238 ft | 85 kts | 78° |
| 2026-04-11 23:50 | 29.93756 | -88.13425 | 237 ft | 83 kts | 80° |
| 2026-04-11 23:50 | 29.93906 | -88.12769 | 239 ft | 85 kts | 79° |
| 2026-04-11 23:51 | 29.94055 | -88.12120 | 237 ft | 84 kts | 78° |
| 2026-04-11 23:51 | 29.94201 | -88.11468 | 240 ft | 83 kts | 82° |
| 2026-04-11 23:51 | 29.94345 | -88.10820 | 237 ft | 84 kts | 80° |
| 2026-04-11 23:51 | 29.94490 | -88.10170 | 239 ft | 82 kts | 81° |
| 2026-04-11 23:52 | 29.94630 | -88.09536 | 237 ft | 82 kts | 80° |
| 2026-04-11 23:52 | 29.94775 | -88.08889 | 236 ft | 85 kts | 79° |
| 2026-04-11 23:52 | 29.94927 | -88.08235 | 237 ft | 85 kts | 73° |
| 2026-04-11 23:52 | 29.95357 | -88.07770 | 233 ft | 91 kts | 19° |
| 2026-04-11 23:53 | 29.95953 | -88.07979 | 241 ft | 95 kts | 311° |
| 2026-04-11 23:53 | 29.96095 | -88.08679 | 239 ft | 91 kts | 258° |
| 2026-04-11 23:53 | 29.95962 | -88.09378 | 238 ft | 89 kts | 249° |
| 2026-04-11 23:53 | 29.95794 | -88.10061 | 241 ft | 89 kts | 252° |
| 2026-04-11 23:54 | 29.95622 | -88.10746 | 238 ft | 89 kts | 247° |
| 2026-04-11 23:54 | 29.95415 | -88.11409 | 238 ft | 88 kts | 243° |
| 2026-04-11 23:54 | 29.95099 | -88.12149 | 217 ft | 117 kts | 237° |
| 2026-04-11 23:54 | 29.94709 | -88.13056 | 238 ft | 128 kts | 244° |
| 2026-04-11 23:55 | 29.94358 | -88.13985 | 235 ft | 126 kts | 243° |
| 2026-04-11 23:55 | 29.94019 | -88.14913 | 236 ft | 126 kts | 244° |
| 2026-04-11 23:55 | 29.93690 | -88.15841 | 239 ft | 123 kts | 245° |
| 2026-04-11 23:55 | 29.93369 | -88.16773 | 241 ft | 126 kts | 245° |
| 2026-04-11 23:56 | 29.93051 | -88.17721 | 235 ft | 127 kts | 244° |
| 2026-04-11 23:56 | 29.92725 | -88.18669 | 237 ft | 128 kts | 245° |
| 2026-04-11 23:56 | 29.92421 | -88.19631 | 236 ft | 128 kts | 247° |
| 2026-04-11 23:56 | 29.92129 | -88.20599 | 236 ft | 128 kts | 248° |
| 2026-04-11 23:57 | 29.91836 | -88.21569 | 237 ft | 128 kts | 248° |
| 2026-04-11 23:57 | 29.91535 | -88.22537 | 236 ft | 129 kts | 248° |
| 2026-04-11 23:57 | 29.91236 | -88.23507 | 234 ft | 128 kts | 248° |
| 2026-04-11 23:57 | 29.90945 | -88.24462 | 233 ft | 128 kts | 248° |
| 2026-04-11 23:58 | 29.90648 | -88.25428 | 238 ft | 128 kts | 247° |
| 2026-04-11 23:58 | 29.90358 | -88.26392 | 234 ft | 127 kts | 248° |
| 2026-04-11 23:58 | 29.90061 | -88.27361 | 238 ft | 127 kts | 247° |
| 2026-04-11 23:58 | 29.89775 | -88.28324 | 235 ft | 128 kts | 247° |
| 2026-04-11 23:59 | 29.89486 | -88.29289 | 236 ft | 126 kts | 246° |
| 2026-04-11 23:59 | 29.89201 | -88.30247 | 235 ft | 127 kts | 248° |
| 2026-04-11 23:59 | 29.88917 | -88.31206 | 233 ft | 126 kts | 249° |
| 2026-04-11 23:59 | 29.88631 | -88.32166 | 232 ft | 127 kts | 248° |
| 2026-04-12 00:00 | 29.88348 | -88.33139 | 235 ft | 128 kts | 248° |
| 2026-04-12 00:00 | 29.88062 | -88.34112 | 237 ft | 128 kts | 248° |
| 2026-04-12 00:00 | 29.87768 | -88.35081 | 238 ft | 128 kts | 248° |
| 2026-04-12 00:00 | 29.87473 | -88.36051 | 237 ft | 129 kts | 248° |
| 2026-04-12 00:01 | 29.87176 | -88.37029 | 239 ft | 128 kts | 248° |
| 2026-04-12 00:01 | 29.86879 | -88.38004 | 238 ft | 130 kts | 249° |
| 2026-04-12 00:01 | 29.86585 | -88.38981 | 236 ft | 129 kts | 247° |
| 2026-04-12 00:01 | 29.86289 | -88.39957 | 237 ft | 129 kts | 249° |
| 2026-04-12 00:02 | 29.85998 | -88.40918 | 235 ft | 129 kts | 246° |
| 2026-04-12 00:02 | 29.85456 | -88.41704 | 236 ft | 124 kts | 211° |
| 2026-04-12 00:02 | 29.84655 | -88.41948 | 236 ft | 119 kts | 172° |
| 2026-04-12 00:02 | 29.83942 | -88.41511 | 236 ft | 120 kts | 131° |
| 2026-04-12 00:03 | 29.83683 | -88.40623 | 238 ft | 120 kts | 91° |
| 2026-04-12 00:03 | 29.83744 | -88.39656 | 237 ft | 121 kts | 88° |
| 2026-04-12 00:03 | 29.83828 | -88.38700 | 239 ft | 121 kts | 86° |
| 2026-04-12 00:03 | 29.83906 | -88.37738 | 235 ft | 120 kts | 87° |
| 2026-04-12 00:04 | 29.83991 | -88.36783 | 237 ft | 120 kts | 86° |
| 2026-04-12 00:04 | 29.84073 | -88.35835 | 236 ft | 118 kts | 87° |
| 2026-04-12 00:04 | 29.84160 | -88.34887 | 237 ft | 120 kts | 86° |
| 2026-04-12 00:04 | 29.84236 | -88.33933 | 236 ft | 119 kts | 87° |
| 2026-04-12 00:05 | 29.84324 | -88.32983 | 238 ft | 120 kts | 85° |
| 2026-04-12 00:05 | 29.84407 | -88.32032 | 247 ft | 118 kts | 86° |
| 2026-04-12 00:05 | 29.84489 | -88.31087 | 231 ft | 121 kts | 87° |
| 2026-04-12 00:05 | 29.84582 | -88.30130 | 236 ft | 119 kts | 86° |
| 2026-04-12 00:06 | 29.84674 | -88.29183 | 235 ft | 120 kts | 86° |
| 2026-04-12 00:06 | 29.84765 | -88.28225 | 237 ft | 121 kts | 86° |
| 2026-04-12 00:06 | 29.84852 | -88.27268 | 237 ft | 120 kts | 88° |
| 2026-04-12 00:06 | 29.84949 | -88.26322 | 235 ft | 120 kts | 86° |
| 2026-04-12 00:07 | 29.85049 | -88.25365 | 239 ft | 120 kts | 87° |
| 2026-04-12 00:07 | 29.85143 | -88.24403 | 232 ft | 123 kts | 86° |
| 2026-04-12 00:07 | 29.85240 | -88.23432 | 235 ft | 121 kts | 86° |
| 2026-04-12 00:07 | 29.85335 | -88.22464 | 235 ft | 122 kts | 86° |
| 2026-04-12 00:08 | 29.85428 | -88.21505 | 234 ft | 120 kts | 85° |
| 2026-04-12 00:08 | 29.85523 | -88.20535 | 236 ft | 122 kts | 87° |
| 2026-04-12 00:08 | 29.85621 | -88.19579 | 236 ft | 119 kts | 86° |
| 2026-04-12 00:08 | 29.85711 | -88.18621 | 235 ft | 122 kts | 86° |
| 2026-04-12 00:09 | 29.85797 | -88.17649 | 238 ft | 120 kts | 86° |
| 2026-04-12 00:09 | 29.85875 | -88.16688 | 236 ft | 122 kts | 86° |
| 2026-04-12 00:09 | 29.85964 | -88.15720 | 240 ft | 120 kts | 85° |
| 2026-04-12 00:09 | 29.86051 | -88.14767 | 236 ft | 119 kts | 86° |
| 2026-04-12 00:10 | 29.86140 | -88.13814 | 236 ft | 120 kts | 86° |
| 2026-04-12 00:10 | 29.86226 | -88.12856 | 235 ft | 120 kts | 86° |
| 2026-04-12 00:10 | 29.86314 | -88.11902 | 239 ft | 119 kts | 86° |
| 2026-04-12 00:10 | 29.86395 | -88.10950 | 234 ft | 120 kts | 87° |
| 2026-04-12 00:11 | 29.86482 | -88.09996 | 237 ft | 120 kts | 86° |
| 2026-04-12 00:11 | 29.86574 | -88.09040 | 238 ft | 119 kts | 86° |
| 2026-04-12 00:11 | 29.86666 | -88.08085 | 239 ft | 121 kts | 86° |
| 2026-04-12 00:11 | 29.86758 | -88.07123 | 240 ft | 120 kts | 86° |
| 2026-04-12 00:12 | 29.86848 | -88.06167 | 238 ft | 120 kts | 87° |
| 2026-04-12 00:12 | 29.86944 | -88.05211 | 240 ft | 120 kts | 87° |
| 2026-04-12 00:12 | 29.87036 | -88.04255 | 235 ft | 121 kts | 86° |
| 2026-04-12 00:12 | 29.87123 | -88.03301 | 235 ft | 122 kts | 86° |
| 2026-04-12 00:13 | 29.87206 | -88.02324 | 238 ft | 121 kts | 86° |
| 2026-04-12 00:13 | 29.87287 | -88.01363 | 235 ft | 121 kts | 86° |
| 2026-04-12 00:13 | 29.87374 | -88.00387 | 238 ft | 123 kts | 85° |
| 2026-04-12 00:13 | 29.87461 | -87.99413 | 235 ft | 122 kts | 86° |
| 2026-04-12 00:14 | 29.87554 | -87.98447 | 234 ft | 121 kts | 85° |
| 2026-04-12 00:14 | 29.87646 | -87.97479 | 238 ft | 121 kts | 86° |
| 2026-04-12 00:14 | 29.87739 | -87.96511 | 234 ft | 122 kts | 86° |
| 2026-04-12 00:14 | 29.87830 | -87.95535 | 237 ft | 122 kts | 86° |
| 2026-04-12 00:15 | 29.87922 | -87.94560 | 239 ft | 122 kts | 85° |
| 2026-04-12 00:15 | 29.88021 | -87.93581 | 236 ft | 124 kts | 86° |
| 2026-04-12 00:15 | 29.88121 | -87.92603 | 214 ft | 123 kts | 86° |
| 2026-04-12 00:15 | 29.88221 | -87.91828 | 313 ft | 82 kts | 99° |
| 2026-04-12 00:16 | 29.88145 | -87.91129 | 200 ft | 97 kts | 88° |
| 2026-04-12 00:16 | 29.88415 | -87.90376 | 159 ft | 108 kts | 53° |
| 2026-04-12 00:16 | 29.89046 | -87.89780 | 155 ft | 127 kts | 37° |
| 2026-04-12 00:16 | 29.89857 | -87.89256 | 152 ft | 139 kts | 29° |
| 2026-04-12 00:17 | 29.90766 | -87.88890 | 206 ft | 138 kts | 11° |
| 2026-04-12 00:17 | 29.91667 | -87.89077 | 213 ft | 130 kts | 328° |
| 2026-04-12 00:17 | 29.92229 | -87.89829 | 237 ft | 120 kts | 291° |
| 2026-04-12 00:17 | 29.92451 | -87.90764 | 190 ft | 123 kts | 274° |
| 2026-04-12 00:18 | 29.92499 | -87.91789 | 166 ft | 132 kts | 269° |
| 2026-04-12 00:18 | 29.92507 | -87.92868 | 186 ft | 136 kts | 266° |
| 2026-04-12 00:18 | 29.92497 | -87.93942 | 202 ft | 132 kts | 266° |
| 2026-04-12 00:18 | 29.92489 | -87.94976 | 208 ft | 127 kts | 266° |
| 2026-04-12 00:19 | 29.92498 | -87.95997 | 205 ft | 128 kts | 267° |
| 2026-04-12 00:19 | 29.92481 | -87.97026 | 199 ft | 127 kts | 268° |
| 2026-04-12 00:19 | 29.92468 | -87.98016 | 200 ft | 123 kts | 264° |
| 2026-04-12 00:19 | 29.92416 | -87.98996 | 202 ft | 123 kts | 265° |
| 2026-04-12 00:20 | 29.92476 | -87.99986 | 204 ft | 123 kts | 269° |
| 2026-04-12 00:20 | 29.92465 | -88.00968 | 205 ft | 122 kts | 266° |
| 2026-04-12 00:20 | 29.92444 | -88.01933 | 206 ft | 123 kts | 264° |
| 2026-04-12 00:20 | 29.92434 | -88.02949 | 205 ft | 130 kts | 270° |
| 2026-04-12 00:21 | 29.92424 | -88.03982 | 208 ft | 129 kts | 264° |
| 2026-04-12 00:21 | 29.92410 | -88.05009 | 217 ft | 126 kts | 276° |
| 2026-04-12 00:21 | 29.92429 | -88.05992 | 203 ft | 124 kts | 266° |
| 2026-04-12 00:21 | 29.92425 | -88.06998 | 211 ft | 126 kts | 266° |
| 2026-04-12 00:22 | 29.92419 | -88.08000 | 207 ft | 125 kts | 266° |
| 2026-04-12 00:22 | 29.92401 | -88.09009 | 208 ft | 125 kts | 266° |
| 2026-04-12 00:22 | 29.92413 | -88.10008 | 212 ft | 124 kts | 270° |
| 2026-04-12 00:22 | 29.92403 | -88.11000 | 209 ft | 124 kts | 264° |
| 2026-04-12 00:23 | 29.92394 | -88.11980 | 213 ft | 124 kts | 270° |
| 2026-04-12 00:23 | 29.92395 | -88.12991 | 203 ft | 126 kts | 266° |
| 2026-04-12 00:23 | 29.92380 | -88.13978 | 209 ft | 124 kts | 267° |
| 2026-04-12 00:23 | 29.92380 | -88.14988 | 209 ft | 126 kts | 266° |
| 2026-04-12 00:24 | 29.92348 | -88.16011 | 210 ft | 128 kts | 264° |
| 2026-04-12 00:24 | 29.92375 | -88.17012 | 217 ft | 122 kts | 267° |
| 2026-04-12 00:24 | 29.92494 | -88.17997 | 212 ft | 126 kts | 273° |
| 2026-04-12 00:24 | 29.92812 | -88.18935 | 209 ft | 130 kts | 314° |
| 2026-04-12 00:25 | 29.93635 | -88.19175 | 208 ft | 128 kts | 20° |
| 2026-04-12 00:25 | 29.94307 | -88.18571 | 216 ft | 121 kts | 49° |
| 2026-04-12 00:25 | 29.94837 | -88.17826 | 210 ft | 121 kts | 62° |
| 2026-04-12 00:25 | 29.95065 | -88.16918 | 213 ft | 116 kts | 91° |
| 2026-04-12 00:26 | 29.94787 | -88.16161 | 208 ft | 101 kts | 163° |
| 2026-04-12 00:26 | 29.94208 | -88.16506 | 274 ft | 98 kts | 220° |
| 2026-04-12 00:26 | 29.93789 | -88.16976 | 283 ft | 71 kts | 220° |
| 2026-04-12 00:26 | 29.93463 | -88.17279 | 272 ft | 50 kts | 220° |
| 2026-04-12 00:27 | 29.93243 | -88.17479 | 266 ft | 31 kts | 220° |
| 2026-04-12 00:27 | 29.93122 | -88.17595 | 260 ft | 15 kts | 220° |
| 2026-04-12 00:27 | 29.93075 | -88.17635 | 258 ft | 2 kts | 220° |
| 2026-04-12 00:27 | 29.93077 | -88.17637 | 256 ft | 0 kts | 220° |
| 2026-04-12 00:28 | 29.93077 | -88.17636 | 256 ft | 0 kts | 220° |
| 2026-04-12 00:29 | 29.93076 | -88.17636 | 256 ft | 0 kts | 220° |
| 2026-04-12 00:29 | 29.93076 | -88.17635 | 257 ft | 0 kts | 220° |
| 2026-04-12 00:30 | 29.93077 | -88.17635 | 257 ft | 0 kts | 220° |
| 2026-04-12 00:31 | 29.93076 | -88.17635 | 257 ft | 0 kts | 220° |
| 2026-04-12 00:31 | 29.93076 | -88.17634 | 257 ft | 0 kts | 220° |
| 2026-04-12 00:31 | 29.93077 | -88.17635 | 257 ft | 0 kts | 220° |
| 2026-04-12 00:31 | 29.93076 | -88.17635 | 257 ft | 0 kts | 220° |
| 2026-04-12 00:32 | 29.93076 | -88.17634 | 257 ft | 0 kts | 220° |
| 2026-04-12 00:32 | 29.93077 | -88.17634 | 258 ft | 0 kts | 220° |
| 2026-04-12 00:33 | 29.93076 | -88.17634 | 259 ft | 0 kts | 220° |
| 2026-04-12 00:33 | 29.93077 | -88.17634 | 258 ft | 0 kts | 220° |
| 2026-04-12 00:34 | 29.93076 | -88.17634 | 258 ft | 0 kts | 220° |
| 2026-04-12 00:35 | 29.93076 | -88.17633 | 259 ft | 0 kts | 220° |
| 2026-04-12 00:35 | 29.93076 | -88.17634 | 257 ft | 0 kts | 220° |
| 2026-04-12 00:37 | 29.93077 | -88.17634 | 256 ft | 0 kts | 220° |
| 2026-04-12 00:37 | 29.93076 | -88.17634 | 257 ft | 0 kts | 220° |
| 2026-04-12 00:38 | 29.93076 | -88.17633 | 258 ft | 0 kts | 220° |
| 2026-04-12 00:38 | 29.93076 | -88.17634 | 258 ft | 0 kts | 220° |
| 2026-04-12 00:40 | 29.93076 | -88.17633 | 257 ft | 0 kts | 220° |
| 2026-04-12 00:40 | 29.93076 | -88.17634 | 258 ft | 0 kts | 220° |
| 2026-04-12 00:41 | 29.93076 | -88.17633 | 258 ft | 0 kts | 220° |
| 2026-04-12 00:41 | 29.93076 | -88.17634 | 257 ft | 0 kts | 220° |
| 2026-04-12 00:43 | 29.93077 | -88.17634 | 257 ft | 0 kts | 220° |
| 2026-04-12 00:43 | 29.93076 | -88.17634 | 257 ft | 0 kts | 220° |
| 2026-04-12 00:44 | 29.93076 | -88.17633 | 257 ft | 0 kts | 220° |
| 2026-04-12 00:44 | 29.93076 | -88.17634 | 257 ft | 0 kts | 220° |
| 2026-04-12 00:44 | 29.93077 | -88.17634 | 259 ft | 0 kts | 220° |
| 2026-04-12 00:45 | 29.93076 | -88.17634 | 257 ft | 0 kts | 220° |
| 2026-04-12 00:47 | 29.93076 | -88.17633 | 257 ft | 1 kts | 220° |
| 2026-04-12 00:47 | 29.93076 | -88.17634 | 257 ft | 0 kts | 220° |
| 2026-04-12 00:48 | 29.93077 | -88.17634 | 257 ft | 0 kts | 220° |
| 2026-04-12 00:48 | 29.93076 | -88.17634 | 257 ft | 0 kts | 220° |
| 2026-04-12 00:50 | 29.93077 | -88.17634 | 257 ft | 0 kts | 220° |
| 2026-04-12 00:51 | 29.93076 | -88.17634 | 257 ft | 0 kts | 220° |
| 2026-04-12 00:51 | 29.93077 | -88.17634 | 257 ft | 0 kts | 220° |
| 2026-04-12 00:51 | 29.93076 | -88.17634 | 258 ft | 0 kts | 220° |
| 2026-04-12 00:52 | 29.93072 | -88.17639 | 256 ft | 6 kts | 219° |
| 2026-04-12 00:52 | 29.93204 | -88.17817 | 300 ft | 82 kts | 2° |
| 2026-04-12 00:53 | 29.93917 | -88.17898 | 405 ft | 114 kts | 5° |
| 2026-04-12 00:53 | 29.94756 | -88.17970 | 516 ft | 127 kts | 1° |
| 2026-04-12 00:53 | 29.95658 | -88.18043 | 574 ft | 130 kts | 358° |
| 2026-04-12 00:53 | 29.96550 | -88.18148 | 672 ft | 129 kts | 356° |
| 2026-04-12 00:54 | 29.97465 | -88.18284 | 693 ft | 136 kts | 354° |
| 2026-04-12 00:54 | 29.98411 | -88.18429 | 697 ft | 137 kts | 354° |
| 2026-04-12 00:54 | 29.99335 | -88.18558 | 688 ft | 134 kts | 354° |
| 2026-04-12 00:54 | 30.00268 | -88.18691 | 696 ft | 134 kts | 354° |
| 2026-04-12 00:55 | 30.01195 | -88.18816 | 690 ft | 134 kts | 354° |
| 2026-04-12 00:55 | 30.02122 | -88.18938 | 693 ft | 134 kts | 354° |
| 2026-04-12 00:55 | 30.03050 | -88.19064 | 697 ft | 135 kts | 354° |
| 2026-04-12 00:55 | 30.03983 | -88.19191 | 697 ft | 134 kts | 354° |
| 2026-04-12 00:56 | 30.04911 | -88.19307 | 700 ft | 134 kts | 355° |
| 2026-04-12 00:56 | 30.05838 | -88.19440 | 697 ft | 134 kts | 354° |
| 2026-04-12 00:56 | 30.06756 | -88.19569 | 700 ft | 132 kts | 354° |
| 2026-04-12 00:56 | 30.07663 | -88.19700 | 695 ft | 135 kts | 354° |
| 2026-04-12 00:57 | 30.08604 | -88.19845 | 697 ft | 132 kts | 354° |
| 2026-04-12 00:57 | 30.09516 | -88.19977 | 695 ft | 133 kts | 355° |
| 2026-04-12 00:57 | 30.10447 | -88.20119 | 703 ft | 135 kts | 354° |
| 2026-04-12 00:57 | 30.11381 | -88.20249 | 699 ft | 136 kts | 353° |
| 2026-04-12 00:58 | 30.12318 | -88.20372 | 696 ft | 136 kts | 354° |
| 2026-04-12 00:58 | 30.13252 | -88.20497 | 700 ft | 135 kts | 355° |
| 2026-04-12 00:58 | 30.14189 | -88.20627 | 701 ft | 134 kts | 354° |
| 2026-04-12 00:58 | 30.15093 | -88.20741 | 695 ft | 133 kts | 354° |
| 2026-04-12 00:59 | 30.16024 | -88.20864 | 697 ft | 134 kts | 354° |
| 2026-04-12 00:59 | 30.16952 | -88.20980 | 700 ft | 135 kts | 355° |
| 2026-04-12 00:59 | 30.17886 | -88.21085 | 701 ft | 135 kts | 354° |
| 2026-04-12 00:59 | 30.18827 | -88.21186 | 707 ft | 134 kts | 354° |
| 2026-04-12 01:00 | 30.19755 | -88.21276 | 696 ft | 134 kts | 355° |
| 2026-04-12 01:00 | 30.20685 | -88.21383 | 698 ft | 135 kts | 353° |
| 2026-04-12 01:00 | 30.21610 | -88.21478 | 702 ft | 132 kts | 355° |
| 2026-04-12 01:00 | 30.22539 | -88.21585 | 698 ft | 135 kts | 354° |
| 2026-04-12 01:01 | 30.23463 | -88.21691 | 703 ft | 134 kts | 354° |
| 2026-04-12 01:01 | 30.24395 | -88.21799 | 701 ft | 135 kts | 354° |
| 2026-04-12 01:01 | 30.25326 | -88.21893 | 701 ft | 135 kts | 355° |
| 2026-04-12 01:01 | 30.26263 | -88.22005 | 697 ft | 135 kts | 354° |
| 2026-04-12 01:02 | 30.27194 | -88.22117 | 697 ft | 134 kts | 354° |
| 2026-04-12 01:02 | 30.28120 | -88.22228 | 697 ft | 132 kts | 354° |
| 2026-04-12 01:02 | 30.29037 | -88.22334 | 707 ft | 133 kts | 354° |
| 2026-04-12 01:02 | 30.29960 | -88.22434 | 702 ft | 134 kts | 354° |
| 2026-04-12 01:03 | 30.30900 | -88.22547 | 706 ft | 135 kts | 354° |
| 2026-04-12 01:03 | 30.31828 | -88.22663 | 703 ft | 135 kts | 355° |
| 2026-04-12 01:03 | 30.32753 | -88.22775 | 702 ft | 133 kts | 353° |
| 2026-04-12 01:03 | 30.33674 | -88.22874 | 708 ft | 132 kts | 355° |
| 2026-04-12 01:04 | 30.34589 | -88.22977 | 704 ft | 134 kts | 355° |
| 2026-04-12 01:04 | 30.35512 | -88.23082 | 700 ft | 133 kts | 354° |
| 2026-04-12 01:04 | 30.36429 | -88.23192 | 708 ft | 133 kts | 354° |
| 2026-04-12 01:04 | 30.37350 | -88.23306 | 704 ft | 132 kts | 354° |
| 2026-04-12 01:05 | 30.38260 | -88.23416 | 704 ft | 133 kts | 354° |
| 2026-04-12 01:05 | 30.39180 | -88.23522 | 706 ft | 134 kts | 355° |
| 2026-04-12 01:05 | 30.40118 | -88.23627 | 702 ft | 137 kts | 355° |
| 2026-04-12 01:05 | 30.41047 | -88.23746 | 706 ft | 135 kts | 353° |
| 2026-04-12 01:06 | 30.41987 | -88.23856 | 708 ft | 135 kts | 353° |
| 2026-04-12 01:06 | 30.42919 | -88.23955 | 708 ft | 134 kts | 355° |
| 2026-04-12 01:06 | 30.43850 | -88.24043 | 704 ft | 134 kts | 355° |
| 2026-04-12 01:06 | 30.44776 | -88.24133 | 706 ft | 133 kts | 355° |
| 2026-04-12 01:07 | 30.45711 | -88.24224 | 716 ft | 134 kts | 354° |
| 2026-04-12 01:07 | 30.46633 | -88.24315 | 704 ft | 133 kts | 353° |
| 2026-04-12 01:07 | 30.47547 | -88.24401 | 709 ft | 131 kts | 354° |
| 2026-04-12 01:08 | 30.49375 | -88.24584 | 707 ft | 133 kts | 354° |
| 2026-04-12 01:08 | 30.50297 | -88.24691 | 702 ft | 133 kts | 355° |
| 2026-04-12 01:08 | 30.51211 | -88.24797 | 698 ft | 133 kts | 356° |
| 2026-04-12 01:08 | 30.52129 | -88.24910 | 712 ft | 133 kts | 354° |
| 2026-04-12 01:09 | 30.53056 | -88.25019 | 705 ft | 135 kts | 354° |
| 2026-04-12 01:09 | 30.53991 | -88.25131 | 698 ft | 137 kts | 352° |
| 2026-04-12 01:09 | 30.54924 | -88.25234 | 709 ft | 133 kts | 354° |
| 2026-04-12 01:09 | 30.55843 | -88.25328 | 711 ft | 132 kts | 358° |
| 2026-04-12 01:10 | 30.56766 | -88.25312 | 715 ft | 133 kts | 2° |
| 2026-04-12 01:10 | 30.57692 | -88.25282 | 698 ft | 133 kts | 1° |
| 2026-04-12 01:10 | 30.58605 | -88.25185 | 697 ft | 134 kts | 20° |
| 2026-04-12 01:10 | 30.59409 | -88.24670 | 705 ft | 132 kts | 33° |
| 2026-04-12 01:11 | 30.60194 | -88.24138 | 707 ft | 133 kts | 34° |
| 2026-04-12 01:11 | 30.60997 | -88.23584 | 701 ft | 132 kts | 33° |
| 2026-04-12 01:11 | 30.61776 | -88.23036 | 705 ft | 130 kts | 33° |
| 2026-04-12 01:11 | 30.62554 | -88.22484 | 703 ft | 132 kts | 32° |
| 2026-04-12 01:12 | 30.63325 | -88.21938 | 703 ft | 132 kts | 33° |
| 2026-04-12 01:12 | 30.64110 | -88.21387 | 701 ft | 132 kts | 32° |
| 2026-04-12 01:12 | 30.64976 | -88.21031 | 703 ft | 133 kts | 2° |
| 2026-04-12 01:12 | 30.65859 | -88.21362 | 659 ft | 137 kts | 329° |
| 2026-04-12 01:13 | 30.66642 | -88.21978 | 619 ft | 132 kts | 322° |
| 2026-04-12 01:13 | 30.67333 | -88.22601 | 610 ft | 118 kts | 321° |
| 2026-04-12 01:13 | 30.67949 | -88.23133 | 469 ft | 101 kts | 320° |
| 2026-04-12 01:13 | 30.68427 | -88.23564 | 369 ft | 71 kts | 320° |
| 2026-04-12 01:14 | 30.68715 | -88.23816 | 262 ft | 32 kts | 319° |
| 2026-04-12 01:14 | 30.68838 | -88.23925 | 227 ft | 13 kts | 321° |
| 2026-04-12 01:14 | 30.68887 | -88.23963 | 217 ft | 8 kts | 323° |
| 2026-04-12 01:14 | 30.68929 | -88.24000 | 217 ft | 8 kts | 323° |
| 2026-04-12 01:15 | 30.68973 | -88.24038 | 217 ft | 8 kts | 324° |
| 2026-04-12 01:15 | 30.69025 | -88.24082 | 216 ft | 11 kts | 323° |
| 2026-04-12 01:15 | 30.69091 | -88.24137 | 216 ft | 12 kts | 324° |
| 2026-04-12 01:15 | 30.69162 | -88.24198 | 217 ft | 13 kts | 324° |
| 2026-04-12 01:16 | 30.69233 | -88.24258 | 218 ft | 13 kts | 324° |
| 2026-04-12 01:16 | 30.69310 | -88.24319 | 218 ft | 14 kts | 332° |
| 2026-04-12 01:16 | 30.69393 | -88.24365 | 219 ft | 13 kts | 356° |
| 2026-04-12 01:16 | 30.69443 | -88.24310 | 220 ft | 9 kts | 115° |
| 2026-04-12 01:17 | 30.69441 | -88.24306 | 220 ft | 0 kts | 133° |
| 2026-04-12 01:17 | 30.69440 | -88.24301 | 220 ft | 4 kts | 91° |
| 2026-04-12 01:17 | 30.69435 | -88.24285 | 220 ft | 0 kts | 180° |
| 2026-04-12 01:20 | 30.69419 | -88.24256 | 232 ft | 31 kts | 123° |
| 2026-04-12 01:21 | 30.69384 | -88.24186 | 925 ft | 12 kts | 140° |
| 2026-04-12 01:21 | 30.69490 | -88.24255 | 792 ft | 21 kts | 139° |
| 2026-04-12 01:21 | 30.69540 | -88.24392 | 223 ft | 1 kts | 112° |